Arkville, New York
Current Conditions -  °F | °C
As of 6:55 PM on Monday 22 Dec 2014 (Local Time) from KMSV Reporting Station
Overcast Overcast  
Wind Chill: 26°   Ceiling: 200
Heat Index: 34°   Visibility: 2.5mi
Dew Point: 32°   Wind: 10mph
Humidity: 93%   Direction: 90°E
Pressure: 30.19"   Gusts: NA
Location:  42.15°N, 74.62°W
Report Text: KMSV 222355Z AUTO 09009KT 2 1/2SM OVC002 01/00 A3019 RMK AO1 10010 20000 400101020 57007
Loading
Personal Weather Stations






























Interactive Weather Map New forecast layout! Learn more

10-Day Weather Forecast

Advertisements
Track Severe Weather on mobile